This is the latest recevied weather packets stored in our database for station/object K9TLD. If no packets are shown the sender has not sent any weather packets the latest 1 day(s).
| Time | Temp. | Humidity | Pressure | Rain* | Wind** | Luminosity | Snow |
|---|---|---|---|---|---|---|---|
| 1836274708 | 20.56° C | 89% | 1019.7 hPa | 0 mm | 0.45 m/s, 196° | 0 W/m² | - |
| 1836274560 | 20.56° C | 89% | 1019.8 hPa | 0 mm | 0.45 m/s, 195° | 0 W/m² | - |
| 1836274406 | 21.11° C | 89% | 1019.8 hPa | 0 mm | 0.89 m/s, 174° | 0 W/m² | - |
| 1836274259 | 20.56° C | 89% | 1019.9 hPa | 0 mm | 0 m/s | 0 W/m² | - |
| 1836274104 | 21.11° C | 89% | 1020 hPa | 0 mm | 0.89 m/s, 152° | 0 W/m² | - |
| 1778044673 | 5° C | 58% | 1013 hPa | 0 mm | 0 m/s | 0 W/m² | - |
| 1778044369 | 5° C | 58% | 1012.9 hPa | 0 mm | 0 m/s | 0 W/m² | - |
| 1778044068 | 5.56° C | 57% | 1012.8 hPa | 0 mm | 0 m/s | 0 W/m² | - |
| 1778043765 | 5.56° C | 56% | 1012.8 hPa | 0 mm | 0 m/s | 0 W/m² | - |
| 1778043461 | 5.56° C | 57% | 1012.9 hPa | 0 mm | 0 m/s | 0 W/m² | - |
| 1778043158 | 5.56° C | 56% | 1012.9 hPa | 0 mm | 0 m/s | 0 W/m² | - |
| 1778042855 | 6.11° C | 56% | 1012.9 hPa | 0 mm | 0 m/s | 0 W/m² | - |
| 1778042552 | 6.11° C | 55% | 1012.8 hPa | 0 mm | 0 m/s | 0 W/m² | - |
| 1778042250 | 6.67° C | 54% | 1012.5 hPa | 0 mm | 0 m/s | 0 W/m² | - |
| 1778041947 | 6.67° C | 54% | 1012.6 hPa | 0 mm | 0 m/s | 0 W/m² | - |
| 1778041646 | 6.67° C | 53% | 1012.6 hPa | 0 mm | 0 m/s | 0 W/m² | - |
| 1778041353 | 6.67° C | 54% | 1012.7 hPa | 0 mm | 0 m/s | 0 W/m² | - |
| 1778041042 | 6.67° C | 52% | 1012.6 hPa | 0 mm | 0 m/s | 0 W/m² | - |
| 1778040739 | 7.22° C | 52% | 1012.7 hPa | 0 mm | 0 m/s | 0 W/m² | - |
| 1778040436 | 7.22° C | 52% | 1012.6 hPa | 0 mm | 0 m/s | 0 W/m² | - |
| 1778040133 | 7.22° C | 52% | 1012.7 hPa | 0 mm | 0 m/s | 0 W/m² | - |
| 1778039830 | 7.22° C | 52% | 1012.4 hPa | 0 mm | 0 m/s | 0 W/m² | - |
| 1778039527 | 7.22° C | 51% | 1012.5 hPa | 0 mm | 0 m/s | 0 W/m² | - |
| 1778039224 | 7.78° C | 50% | 1012.7 hPa | 0 mm | 0 m/s | 0 W/m² | - |
| 1778038921 | 7.78° C | 50% | 1012.7 hPa | 0 mm | 0 m/s | 0 W/m² | - |
* Rain latest hour (hover to see other rain measurements)
** Current wind speed in m/s (hover to see current wind gust speed)